LTU628 LFBL-EDDL
Flight info
| Callsign | LTU628 |
|---|---|
| Flight time | 1h 14m |
| Altitude | 34000 |
| Route | BALAN DCT BOKNO UN858 TSU UM163 LEQOS DCT CTL DCT ARDEN DCT KOMOB T859 NVO T857 BIKMU BIKMU1A |
| Aircraft | A320/M-SDE3FGHIRWY/LB1 |
Departure
| Time | 2026-05-07 19:57 |
|---|---|
| Airport | Limoges Airport (LFBL) |
Arrival
| Time | 2026-05-07 21:11 |
|---|---|
| Airport | Düsseldorf Airport (EDDL) |
| Time | Latitude | Longitude | Altitude | Speed | Heading |
|---|---|---|---|---|---|
| 2026-05-07 19:27 | 45.86151 | 1.17737 | 1315 ft | 0 kts | 74° |
| 2026-05-07 19:51 | 45.86154 | 1.17751 | 1315 ft | 4 kts | 75° |
| 2026-05-07 19:51 | 45.86149 | 1.17794 | 1315 ft | 5 kts | 141° |
| 2026-05-07 19:51 | 45.86101 | 1.17781 | 1315 ft | 10 kts | 211° |
| 2026-05-07 19:52 | 45.86034 | 1.17721 | 1315 ft | 12 kts | 213° |
| 2026-05-07 19:52 | 45.85960 | 1.17652 | 1315 ft | 13 kts | 213° |
| 2026-05-07 19:52 | 45.85878 | 1.17573 | 1315 ft | 15 kts | 214° |
| 2026-05-07 19:52 | 45.85785 | 1.17486 | 1314 ft | 17 kts | 213° |
| 2026-05-07 19:53 | 45.85683 | 1.17389 | 1315 ft | 18 kts | 213° |
| 2026-05-07 19:53 | 45.85568 | 1.17288 | 1314 ft | 20 kts | 205° |
| 2026-05-07 19:53 | 45.85456 | 1.17241 | 1314 ft | 8 kts | 191° |
| 2026-05-07 19:53 | 45.85432 | 1.17246 | 1314 ft | 0 kts | 155° |
| 2026-05-07 19:54 | 45.85425 | 1.17251 | 1314 ft | 3 kts | 150° |
| 2026-05-07 19:54 | 45.85388 | 1.17309 | 1314 ft | 11 kts | 132° |
| 2026-05-07 19:55 | 45.85318 | 1.17316 | 1314 ft | 11 kts | 220° |
| 2026-05-07 19:55 | 45.85285 | 1.17238 | 1314 ft | 7 kts | 188° |
| 2026-05-07 19:55 | 45.85268 | 1.17270 | 1314 ft | 4 kts | 86° |
| 2026-05-07 19:55 | 45.85289 | 1.17293 | 1314 ft | 0 kts | 34° |
| 2026-05-07 19:56 | 45.85408 | 1.17408 | 1313 ft | 57 kts | 33° |
| 2026-05-07 19:56 | 45.85916 | 1.17882 | 1314 ft | 116 kts | 33° |
| 2026-05-07 19:56 | 45.86721 | 1.18634 | 1348 ft | 155 kts | 33° |
| 2026-05-07 19:57 | 45.87593 | 1.19429 | 1966 ft | 145 kts | 31° |
| 2026-05-07 19:57 | 45.88585 | 1.19659 | 2494 ft | 153 kts | 350° |
| 2026-05-07 19:57 | 45.89524 | 1.18881 | 2982 ft | 161 kts | 321° |
| 2026-05-07 19:57 | 45.90340 | 1.17781 | 3444 ft | 160 kts | 320° |
| 2026-05-07 19:58 | 45.91209 | 1.16778 | 3898 ft | 160 kts | 324° |
| 2026-05-07 19:58 | 45.92100 | 1.15810 | 4347 ft | 161 kts | 324° |
| 2026-05-07 19:58 | 45.93023 | 1.14810 | 4629 ft | 175 kts | 323° |
| 2026-05-07 19:58 | 45.94052 | 1.13689 | 4816 ft | 198 kts | 323° |
| 2026-05-07 19:59 | 45.95210 | 1.12421 | 5006 ft | 221 kts | 323° |
| 2026-05-07 19:59 | 45.96488 | 1.11013 | 5265 ft | 242 kts | 322° |
| 2026-05-07 19:59 | 45.97894 | 1.09454 | 5569 ft | 267 kts | 322° |
| 2026-05-07 19:59 | 45.99399 | 1.07775 | 6188 ft | 279 kts | 321° |
| 2026-05-07 20:00 | 46.00943 | 1.06049 | 6971 ft | 283 kts | 321° |
| 2026-05-07 20:00 | 46.02544 | 1.04367 | 7766 ft | 287 kts | 329° |
| 2026-05-07 20:00 | 46.04387 | 1.03229 | 8554 ft | 292 kts | 344° |
| 2026-05-07 20:00 | 46.06405 | 1.02823 | 9340 ft | 296 kts | 359° |
| 2026-05-07 20:01 | 46.08474 | 1.02855 | 10105 ft | 299 kts | 0° |
| 2026-05-07 20:01 | 46.10610 | 1.02885 | 10458 ft | 318 kts | 360° |
| 2026-05-07 20:01 | 46.12895 | 1.02908 | 10661 ft | 338 kts | 360° |
| 2026-05-07 20:01 | 46.15278 | 1.02931 | 11218 ft | 345 kts | 359° |
| 2026-05-07 20:02 | 46.17697 | 1.02954 | 11867 ft | 349 kts | 359° |
| 2026-05-07 20:02 | 46.20136 | 1.02979 | 12540 ft | 352 kts | 359° |
| 2026-05-07 20:02 | 46.22599 | 1.03000 | 13225 ft | 355 kts | 359° |
| 2026-05-07 20:02 | 46.25077 | 1.03026 | 13896 ft | 358 kts | 359° |
| 2026-05-07 20:03 | 46.27579 | 1.03057 | 14491 ft | 361 kts | 359° |
| 2026-05-07 20:03 | 46.30105 | 1.03088 | 15059 ft | 365 kts | 359° |
| 2026-05-07 20:03 | 46.32628 | 1.03119 | 15615 ft | 369 kts | 359° |
| 2026-05-07 20:03 | 46.35239 | 1.03151 | 16172 ft | 372 kts | 359° |
| 2026-05-07 20:04 | 46.37847 | 1.03179 | 16712 ft | 377 kts | 359° |
| 2026-05-07 20:04 | 46.40483 | 1.03204 | 17251 ft | 381 kts | 359° |
| 2026-05-07 20:04 | 46.43108 | 1.03229 | 17794 ft | 385 kts | 359° |
| 2026-05-07 20:04 | 46.45802 | 1.03255 | 18343 ft | 389 kts | 359° |
| 2026-05-07 20:05 | 46.48521 | 1.03280 | 18845 ft | 392 kts | 358° |
| 2026-05-07 20:05 | 46.51237 | 1.02918 | 19373 ft | 393 kts | 347° |
| 2026-05-07 20:05 | 46.53872 | 1.01864 | 19912 ft | 393 kts | 337° |
| 2026-05-07 20:05 | 46.56393 | 1.00296 | 20460 ft | 395 kts | 334° |
| 2026-05-07 20:06 | 46.58916 | 0.98681 | 20989 ft | 398 kts | 334° |
| 2026-05-07 20:06 | 46.61460 | 0.97059 | 21507 ft | 401 kts | 334° |
| 2026-05-07 20:06 | 46.64022 | 0.95426 | 22022 ft | 403 kts | 334° |
| 2026-05-07 20:06 | 46.66598 | 0.93776 | 22518 ft | 406 kts | 334° |
| 2026-05-07 20:07 | 46.69192 | 0.92107 | 23036 ft | 409 kts | 334° |
| 2026-05-07 20:07 | 46.71801 | 0.90431 | 23524 ft | 411 kts | 334° |
| 2026-05-07 20:07 | 46.74429 | 0.88744 | 23933 ft | 414 kts | 334° |
| 2026-05-07 20:07 | 46.77067 | 0.87049 | 24340 ft | 416 kts | 334° |
| 2026-05-07 20:08 | 46.79727 | 0.85335 | 24740 ft | 418 kts | 333° |
| 2026-05-07 20:08 | 46.82392 | 0.83618 | 25137 ft | 420 kts | 333° |
| 2026-05-07 20:08 | 46.85077 | 0.81885 | 25518 ft | 423 kts | 333° |
| 2026-05-07 20:08 | 46.87772 | 0.80143 | 25915 ft | 425 kts | 333° |
| 2026-05-07 20:09 | 46.90447 | 0.78412 | 26277 ft | 427 kts | 333° |
| 2026-05-07 20:09 | 46.93172 | 0.76648 | 26634 ft | 429 kts | 333° |
| 2026-05-07 20:09 | 46.95907 | 0.74878 | 26990 ft | 431 kts | 333° |
| 2026-05-07 20:10 | 47.01437 | 0.71344 | 27682 ft | 437 kts | 337° |
| 2026-05-07 20:10 | 47.04380 | 0.70120 | 28018 ft | 443 kts | 347° |
| 2026-05-07 20:10 | 47.07460 | 0.69597 | 28358 ft | 448 kts | 356° |
| 2026-05-07 20:10 | 47.10592 | 0.69767 | 28688 ft | 452 kts | 2° |
| 2026-05-07 20:11 | 47.13740 | 0.70104 | 29022 ft | 455 kts | 2° |
| 2026-05-07 20:11 | 47.16907 | 0.70440 | 29351 ft | 457 kts | 2° |
| 2026-05-07 20:11 | 47.20087 | 0.70773 | 29679 ft | 458 kts | 2° |
| 2026-05-07 20:11 | 47.23222 | 0.71103 | 29853 ft | 444 kts | 2° |
| 2026-05-07 20:12 | 47.26309 | 0.71433 | 29992 ft | 447 kts | 2° |
| 2026-05-07 20:12 | 47.29442 | 0.71761 | 30135 ft | 454 kts | 2° |
| 2026-05-07 20:12 | 47.32615 | 0.72084 | 30353 ft | 458 kts | 1° |
| 2026-05-07 20:12 | 47.35799 | 0.72408 | 30683 ft | 459 kts | 1° |
| 2026-05-07 20:13 | 47.38986 | 0.72737 | 31054 ft | 459 kts | 2° |
| 2026-05-07 20:13 | 47.42173 | 0.73076 | 31445 ft | 459 kts | 2° |
| 2026-05-07 20:13 | 47.45350 | 0.73415 | 31830 ft | 458 kts | 1° |
| 2026-05-07 20:13 | 47.48491 | 0.73842 | 32207 ft | 459 kts | 7° |
| 2026-05-07 20:14 | 47.51618 | 0.74873 | 32585 ft | 462 kts | 15° |
| 2026-05-07 20:14 | 47.54671 | 0.76358 | 32958 ft | 462 kts | 17° |
| 2026-05-07 20:14 | 47.57720 | 0.77861 | 33331 ft | 462 kts | 16° |
| 2026-05-07 20:14 | 47.60768 | 0.79370 | 33716 ft | 462 kts | 16° |
| 2026-05-07 20:15 | 47.63755 | 0.81153 | 33981 ft | 465 kts | 28° |
| 2026-05-07 20:15 | 47.66373 | 0.83969 | 34013 ft | 468 kts | 44° |
| 2026-05-07 20:15 | 47.68537 | 0.87595 | 34039 ft | 470 kts | 50° |
| 2026-05-07 20:16 | 47.72731 | 0.95057 | 34011 ft | 471 kts | 50° |
| 2026-05-07 20:16 | 47.76915 | 1.02542 | 34017 ft | 470 kts | 50° |
| 2026-05-07 20:17 | 47.81107 | 1.10023 | 34013 ft | 471 kts | 50° |
| 2026-05-07 20:17 | 47.85301 | 1.17507 | 34015 ft | 471 kts | 50° |
| 2026-05-07 20:18 | 47.89494 | 1.25014 | 34022 ft | 471 kts | 50° |
| 2026-05-07 20:18 | 47.93686 | 1.32533 | 34040 ft | 471 kts | 50° |
| 2026-05-07 20:19 | 47.97868 | 1.40063 | 34036 ft | 471 kts | 50° |
| 2026-05-07 20:19 | 48.02044 | 1.47605 | 34046 ft | 471 kts | 50° |
| 2026-05-07 20:20 | 48.06183 | 1.55110 | 34042 ft | 471 kts | 50° |
| 2026-05-07 20:20 | 48.10341 | 1.62673 | 34042 ft | 470 kts | 50° |
| 2026-05-07 20:21 | 48.14489 | 1.70236 | 34046 ft | 470 kts | 50° |
| 2026-05-07 20:21 | 48.18638 | 1.77815 | 34030 ft | 470 kts | 50° |
| 2026-05-07 20:22 | 48.22779 | 1.85400 | 34055 ft | 470 kts | 50° |
| 2026-05-07 20:22 | 48.26917 | 1.92985 | 34054 ft | 469 kts | 50° |
| 2026-05-07 20:23 | 48.31031 | 2.00586 | 34051 ft | 469 kts | 52° |
| 2026-05-07 20:23 | 48.34426 | 2.08941 | 34055 ft | 468 kts | 60° |
| 2026-05-07 20:24 | 48.37634 | 2.17374 | 34053 ft | 467 kts | 60° |
| 2026-05-07 20:24 | 48.40844 | 2.25875 | 34052 ft | 467 kts | 60° |
| 2026-05-07 20:25 | 48.44057 | 2.34381 | 34077 ft | 466 kts | 60° |
| 2026-05-07 20:25 | 48.47252 | 2.42838 | 34042 ft | 464 kts | 60° |
| 2026-05-07 20:26 | 48.50439 | 2.51292 | 34048 ft | 464 kts | 60° |
| 2026-05-07 20:26 | 48.53624 | 2.59754 | 34050 ft | 464 kts | 60° |
| 2026-05-07 20:27 | 48.56790 | 2.68245 | 34056 ft | 464 kts | 60° |
| 2026-05-07 20:27 | 48.59947 | 2.76744 | 34057 ft | 464 kts | 60° |
| 2026-05-07 20:28 | 48.63112 | 2.85269 | 34067 ft | 464 kts | 60° |
| 2026-05-07 20:28 | 48.66274 | 2.93773 | 34071 ft | 464 kts | 60° |
| 2026-05-07 20:29 | 48.69413 | 3.02229 | 34079 ft | 463 kts | 60° |
| 2026-05-07 20:29 | 48.72559 | 3.10729 | 34076 ft | 463 kts | 60° |
| 2026-05-07 20:30 | 48.76322 | 3.18544 | 34073 ft | 460 kts | 43° |
| 2026-05-07 20:30 | 48.80893 | 3.25328 | 34065 ft | 460 kts | 43° |
| 2026-05-07 20:31 | 48.85497 | 3.32099 | 34066 ft | 461 kts | 43° |
| 2026-05-07 20:31 | 48.90095 | 3.38890 | 34069 ft | 461 kts | 43° |
| 2026-05-07 20:32 | 48.94676 | 3.45708 | 34070 ft | 461 kts | 43° |
| 2026-05-07 20:32 | 48.99254 | 3.52547 | 34078 ft | 461 kts | 43° |
| 2026-05-07 20:33 | 49.03830 | 3.59391 | 34082 ft | 461 kts | 43° |
| 2026-05-07 20:33 | 49.07634 | 3.65080 | 34072 ft | 460 kts | 43° |
| 2026-05-07 20:34 | 49.12202 | 3.71932 | 34071 ft | 460 kts | 43° |
| 2026-05-07 20:34 | 49.17494 | 3.79909 | 34065 ft | 460 kts | 43° |
| 2026-05-07 20:35 | 49.21309 | 3.85676 | 34064 ft | 460 kts | 43° |
| 2026-05-07 20:35 | 49.25828 | 3.92521 | 34084 ft | 460 kts | 43° |
| 2026-05-07 20:36 | 49.30369 | 3.99420 | 34082 ft | 459 kts | 43° |
| 2026-05-07 20:36 | 49.34899 | 4.06329 | 34081 ft | 459 kts | 43° |
| 2026-05-07 20:37 | 49.39423 | 4.13235 | 34085 ft | 458 kts | 43° |
| 2026-05-07 20:37 | 49.43942 | 4.20148 | 34083 ft | 458 kts | 44° |
| 2026-05-07 20:38 | 49.48455 | 4.27067 | 34088 ft | 458 kts | 44° |
| 2026-05-07 20:38 | 49.52967 | 4.34000 | 34085 ft | 458 kts | 44° |
| 2026-05-07 20:39 | 49.57469 | 4.40958 | 33983 ft | 456 kts | 44° |
| 2026-05-07 20:39 | 49.59664 | 4.44361 | 33513 ft | 451 kts | 44° |
| 2026-05-07 20:39 | 49.61868 | 4.47777 | 33046 ft | 447 kts | 44° |
| 2026-05-07 20:39 | 49.64054 | 4.51168 | 32576 ft | 443 kts | 44° |
| 2026-05-07 20:40 | 49.66217 | 4.54528 | 32173 ft | 439 kts | 44° |
| 2026-05-07 20:40 | 49.68363 | 4.57864 | 32039 ft | 438 kts | 44° |
| 2026-05-07 20:40 | 49.70511 | 4.61203 | 32079 ft | 439 kts | 44° |
| 2026-05-07 20:41 | 49.74814 | 4.67907 | 32076 ft | 439 kts | 44° |
| 2026-05-07 20:41 | 49.79108 | 4.74624 | 32079 ft | 439 kts | 44° |
| 2026-05-07 20:42 | 49.83398 | 4.81351 | 32079 ft | 439 kts | 44° |
| 2026-05-07 20:42 | 49.87647 | 4.88164 | 32088 ft | 439 kts | 46° |
| 2026-05-07 20:43 | 49.91639 | 4.95329 | 32081 ft | 439 kts | 49° |
| 2026-05-07 20:43 | 49.95521 | 5.02640 | 32081 ft | 439 kts | 49° |
| 2026-05-07 20:44 | 49.99432 | 5.09905 | 32082 ft | 438 kts | 48° |
| 2026-05-07 20:44 | 50.03383 | 5.17132 | 32081 ft | 438 kts | 48° |
| 2026-05-07 20:45 | 50.07328 | 5.24351 | 32081 ft | 438 kts | 48° |
| 2026-05-07 20:45 | 50.11269 | 5.31590 | 32081 ft | 438 kts | 48° |
| 2026-05-07 20:46 | 50.15202 | 5.38858 | 32085 ft | 438 kts | 49° |
| 2026-05-07 20:46 | 50.19132 | 5.46126 | 32080 ft | 438 kts | 49° |
| 2026-05-07 20:46 | 50.21074 | 5.49728 | 31381 ft | 442 kts | 49° |
| 2026-05-07 20:47 | 50.23050 | 5.53403 | 30873 ft | 439 kts | 49° |
| 2026-05-07 20:47 | 50.25005 | 5.57043 | 30397 ft | 436 kts | 49° |
| 2026-05-07 20:47 | 50.26946 | 5.60656 | 29884 ft | 433 kts | 49° |
| 2026-05-07 20:47 | 50.28871 | 5.64238 | 29428 ft | 428 kts | 49° |
| 2026-05-07 20:48 | 50.30774 | 5.67785 | 28957 ft | 423 kts | 49° |
| 2026-05-07 20:48 | 50.32654 | 5.71297 | 28513 ft | 419 kts | 49° |
| 2026-05-07 20:48 | 50.34513 | 5.74783 | 28069 ft | 415 kts | 49° |
| 2026-05-07 20:48 | 50.36355 | 5.78242 | 27647 ft | 412 kts | 49° |
| 2026-05-07 20:49 | 50.38183 | 5.81680 | 27218 ft | 409 kts | 49° |
| 2026-05-07 20:49 | 50.39999 | 5.85098 | 26809 ft | 406 kts | 49° |
| 2026-05-07 20:49 | 50.41788 | 5.88464 | 26411 ft | 404 kts | 49° |
| 2026-05-07 20:49 | 50.43596 | 5.91866 | 25992 ft | 403 kts | 49° |
| 2026-05-07 20:50 | 50.45385 | 5.95240 | 25587 ft | 401 kts | 49° |
| 2026-05-07 20:50 | 50.47142 | 5.98562 | 25186 ft | 400 kts | 49° |
| 2026-05-07 20:50 | 50.48916 | 6.01923 | 24767 ft | 399 kts | 49° |
| 2026-05-07 20:50 | 50.50678 | 6.05274 | 24356 ft | 398 kts | 49° |
| 2026-05-07 20:51 | 50.52442 | 6.08629 | 23924 ft | 397 kts | 49° |
| 2026-05-07 20:51 | 50.54200 | 6.11970 | 23466 ft | 396 kts | 49° |
| 2026-05-07 20:51 | 50.55952 | 6.15302 | 23010 ft | 394 kts | 49° |
| 2026-05-07 20:51 | 50.57688 | 6.18613 | 22567 ft | 391 kts | 50° |
| 2026-05-07 20:52 | 50.59413 | 6.21909 | 22121 ft | 388 kts | 50° |
| 2026-05-07 20:52 | 50.61122 | 6.25177 | 21674 ft | 386 kts | 50° |
| 2026-05-07 20:52 | 50.62822 | 6.28425 | 21234 ft | 383 kts | 49° |
| 2026-05-07 20:52 | 50.64539 | 6.31612 | 20782 ft | 380 kts | 48° |
| 2026-05-07 20:53 | 50.66274 | 6.34743 | 20333 ft | 378 kts | 48° |
| 2026-05-07 20:53 | 50.68007 | 6.37835 | 19895 ft | 375 kts | 47° |
| 2026-05-07 20:53 | 50.69730 | 6.40904 | 19428 ft | 373 kts | 47° |
| 2026-05-07 20:53 | 50.71420 | 6.43925 | 18999 ft | 370 kts | 48° |
| 2026-05-07 20:54 | 50.73114 | 6.46974 | 18557 ft | 368 kts | 48° |
| 2026-05-07 20:54 | 50.74792 | 6.50014 | 18081 ft | 366 kts | 48° |
| 2026-05-07 20:54 | 50.76454 | 6.53038 | 17629 ft | 363 kts | 49° |
| 2026-05-07 20:54 | 50.78097 | 6.56038 | 17193 ft | 359 kts | 49° |
| 2026-05-07 20:55 | 50.79727 | 6.59006 | 16745 ft | 356 kts | 47° |
| 2026-05-07 20:55 | 50.81554 | 6.61604 | 16319 ft | 352 kts | 33° |
| 2026-05-07 20:55 | 50.83683 | 6.63440 | 15895 ft | 347 kts | 20° |
| 2026-05-07 20:55 | 50.85992 | 6.64445 | 15468 ft | 343 kts | 7° |
| 2026-05-07 20:56 | 50.88347 | 6.64941 | 15048 ft | 340 kts | 6° |
| 2026-05-07 20:56 | 50.90698 | 6.65438 | 14626 ft | 339 kts | 6° |
| 2026-05-07 20:56 | 50.93025 | 6.65940 | 14212 ft | 337 kts | 6° |
| 2026-05-07 20:56 | 50.95342 | 6.66442 | 13791 ft | 336 kts | 6° |
| 2026-05-07 20:57 | 50.97648 | 6.66940 | 13354 ft | 333 kts | 6° |
| 2026-05-07 20:57 | 50.99937 | 6.67434 | 12937 ft | 331 kts | 6° |
| 2026-05-07 20:57 | 51.02211 | 6.67871 | 12527 ft | 327 kts | 1° |
| 2026-05-07 20:57 | 51.04475 | 6.67774 | 12125 ft | 324 kts | 355° |
| 2026-05-07 20:58 | 51.06720 | 6.67582 | 11739 ft | 322 kts | 356° |
| 2026-05-07 20:58 | 51.08947 | 6.67393 | 11343 ft | 320 kts | 356° |
| 2026-05-07 20:58 | 51.11138 | 6.67615 | 11096 ft | 309 kts | 10° |
| 2026-05-07 20:58 | 51.13183 | 6.68461 | 10617 ft | 300 kts | 15° |
| 2026-05-07 20:59 | 51.15135 | 6.69343 | 10102 ft | 294 kts | 15° |
| 2026-05-07 20:59 | 51.17106 | 6.70236 | 9457 ft | 291 kts | 15° |
| 2026-05-07 20:59 | 51.19027 | 6.71109 | 8939 ft | 284 kts | 15° |
| 2026-05-07 20:59 | 51.20924 | 6.71921 | 8363 ft | 279 kts | 11° |
| 2026-05-07 21:00 | 51.22801 | 6.72610 | 7783 ft | 275 kts | 15° |
| 2026-05-07 21:00 | 51.24638 | 6.73343 | 7322 ft | 266 kts | 2° |
| 2026-05-07 21:00 | 51.26338 | 6.72731 | 7184 ft | 245 kts | 326° |
| 2026-05-07 21:00 | 51.27386 | 6.70732 | 6848 ft | 235 kts | 288° |
| 2026-05-07 21:01 | 51.27391 | 6.68214 | 6519 ft | 228 kts | 252° |
| 2026-05-07 21:01 | 51.26735 | 6.65916 | 6044 ft | 228 kts | 243° |
| 2026-05-07 21:01 | 51.26054 | 6.63634 | 5554 ft | 227 kts | 245° |
| 2026-05-07 21:01 | 51.25429 | 6.61322 | 5087 ft | 226 kts | 250° |
| 2026-05-07 21:02 | 51.24948 | 6.58997 | 4885 ft | 213 kts | 253° |
| 2026-05-07 21:02 | 51.24530 | 6.56782 | 4564 ft | 206 kts | 254° |
| 2026-05-07 21:02 | 51.24124 | 6.54595 | 4161 ft | 204 kts | 254° |
| 2026-05-07 21:02 | 51.23717 | 6.52428 | 3745 ft | 204 kts | 253° |
| 2026-05-07 21:03 | 51.23305 | 6.50265 | 3342 ft | 203 kts | 253° |
| 2026-05-07 21:03 | 51.22864 | 6.48137 | 3013 ft | 200 kts | 243° |
| 2026-05-07 21:03 | 51.22029 | 6.46366 | 3012 ft | 202 kts | 218° |
| 2026-05-07 21:03 | 51.20808 | 6.45355 | 3024 ft | 202 kts | 192° |
| 2026-05-07 21:04 | 51.19466 | 6.45280 | 3038 ft | 186 kts | 167° |
| 2026-05-07 21:04 | 51.18326 | 6.45993 | 3008 ft | 169 kts | 145° |
| 2026-05-07 21:04 | 51.17513 | 6.47182 | 3006 ft | 149 kts | 126° |
| 2026-05-07 21:04 | 51.17029 | 6.48615 | 3006 ft | 145 kts | 108° |
| 2026-05-07 21:05 | 51.16851 | 6.50179 | 3009 ft | 143 kts | 90° |
| 2026-05-07 21:05 | 51.16980 | 6.51740 | 3008 ft | 142 kts | 73° |
| 2026-05-07 21:05 | 51.17402 | 6.53160 | 3011 ft | 142 kts | 55° |
| 2026-05-07 21:05 | 51.18000 | 6.54414 | 3011 ft | 142 kts | 53° |
| 2026-05-07 21:06 | 51.18604 | 6.55669 | 3010 ft | 142 kts | 53° |
| 2026-05-07 21:06 | 51.19207 | 6.56922 | 2962 ft | 143 kts | 53° |
| 2026-05-07 21:06 | 51.19811 | 6.58179 | 2831 ft | 142 kts | 53° |
| 2026-05-07 21:06 | 51.20413 | 6.59433 | 2655 ft | 142 kts | 53° |
| 2026-05-07 21:07 | 51.21004 | 6.60663 | 2480 ft | 141 kts | 53° |
| 2026-05-07 21:07 | 51.21600 | 6.61905 | 2294 ft | 140 kts | 53° |
| 2026-05-07 21:07 | 51.22192 | 6.63140 | 2106 ft | 140 kts | 53° |
| 2026-05-07 21:07 | 51.22780 | 6.64367 | 1916 ft | 139 kts | 54° |
| 2026-05-07 21:08 | 51.23366 | 6.65590 | 1728 ft | 138 kts | 54° |
| 2026-05-07 21:08 | 51.23949 | 6.66807 | 1540 ft | 138 kts | 54° |
| 2026-05-07 21:08 | 51.24531 | 6.68021 | 1348 ft | 138 kts | 53° |
| 2026-05-07 21:08 | 51.25112 | 6.69236 | 1166 ft | 138 kts | 53° |
| 2026-05-07 21:09 | 51.25691 | 6.70447 | 967 ft | 137 kts | 53° |
| 2026-05-07 21:09 | 51.26263 | 6.71657 | 781 ft | 136 kts | 54° |
| 2026-05-07 21:09 | 51.26832 | 6.72853 | 571 ft | 135 kts | 52° |
| 2026-05-07 21:09 | 51.27398 | 6.74036 | 426 ft | 135 kts | 53° |
| 2026-05-07 21:10 | 51.27964 | 6.75215 | 220 ft | 133 kts | 53° |
| 2026-05-07 21:10 | 51.28513 | 6.76359 | 133 ft | 118 kts | 53° |
| 2026-05-07 21:10 | 51.28907 | 6.77184 | 132 ft | 70 kts | 52° |
| 2026-05-07 21:10 | 51.29157 | 6.77713 | 136 ft | 51 kts | 51° |
| 2026-05-07 21:11 | 51.29288 | 6.77988 | 139 ft | 20 kts | 58° |
| 2026-05-07 21:11 | 51.29258 | 6.78186 | 138 ft | 21 kts | 140° |
| 2026-05-07 21:11 | 51.29189 | 6.78205 | 137 ft | 2 kts | 195° |
| 2026-05-07 21:12 | 51.29156 | 6.78171 | 137 ft | 8 kts | 225° |
| 2026-05-07 21:12 | 51.29115 | 6.78090 | 137 ft | 11 kts | 232° |
| 2026-05-07 21:12 | 51.29060 | 6.77975 | 137 ft | 16 kts | 233° |
| 2026-05-07 21:12 | 51.28991 | 6.77822 | 137 ft | 18 kts | 232° |
| 2026-05-07 21:13 | 51.28906 | 6.77656 | 137 ft | 20 kts | 233° |
| 2026-05-07 21:13 | 51.28815 | 6.77460 | 136 ft | 23 kts | 233° |
| 2026-05-07 21:13 | 51.28712 | 6.77245 | 137 ft | 26 kts | 232° |
| 2026-05-07 21:13 | 51.28598 | 6.77009 | 137 ft | 28 kts | 232° |
| 2026-05-07 21:14 | 51.28499 | 6.76801 | 137 ft | 13 kts | 231° |
| 2026-05-07 21:14 | 51.28420 | 6.76815 | 137 ft | 14 kts | 138° |
| 2026-05-07 21:14 | 51.28357 | 6.76757 | 137 ft | 15 kts | 277° |
| 2026-05-07 21:14 | 51.28319 | 6.76605 | 137 ft | 14 kts | 232° |
| 2026-05-07 21:15 | 51.28253 | 6.76469 | 137 ft | 17 kts | 232° |
| 2026-05-07 21:15 | 51.28176 | 6.76310 | 137 ft | 19 kts | 232° |
| 2026-05-07 21:15 | 51.28097 | 6.76142 | 137 ft | 18 kts | 234° |
| 2026-05-07 21:15 | 51.28027 | 6.76048 | 137 ft | 12 kts | 189° |
| 2026-05-07 21:16 | 51.27942 | 6.76049 | 137 ft | 13 kts | 179° |
| 2026-05-07 21:16 | 51.27884 | 6.76050 | 137 ft | 6 kts | 180° |
| 2026-05-07 21:16 | 51.27840 | 6.76049 | 137 ft | 7 kts | 183° |
| 2026-05-07 21:16 | 51.27791 | 6.76045 | 137 ft | 7 kts | 184° |
| 2026-05-07 21:17 | 51.27759 | 6.76044 | 137 ft | 2 kts | 168° |
| 2026-05-07 21:17 | 51.27750 | 6.76064 | 137 ft | 3 kts | 107° |
| 2026-05-07 21:17 | 51.27738 | 6.76098 | 137 ft | 4 kts | 117° |
| 2026-05-07 21:17 | 51.27726 | 6.76140 | 137 ft | 4 kts | 118° |
| 2026-05-07 21:18 | 51.27724 | 6.76148 | 137 ft | 0 kts | 118° |